createdAt,value
2018-10-02T00:01:38.118Z,71.54
2018-10-02T00:04:07.182Z,71.22
2018-10-02T00:06:36.066Z,71.14
2018-10-02T00:09:06.953Z,70.99
2018-10-02T00:11:41.004Z,71.25
2018-10-02T00:14:15.249Z,71.20
2018-10-02T00:16:44.376Z,71.00
2018-10-02T00:19:13.129Z,70.64
2018-10-02T00:21:41.967Z,70.72
2018-10-02T00:24:10.709Z,70.84
2018-10-02T00:26:39.601Z,70.58
2018-10-02T00:29:08.475Z,70.29
2018-10-02T00:31:37.410Z,70.30
2018-10-02T00:34:06.195Z,70.63
2018-10-02T00:36:35.052Z,70.66
2018-10-02T00:39:04.418Z,70.39
2018-10-02T00:41:33.270Z,70.27
2018-10-02T00:44:02.094Z,70.53
2018-10-02T00:46:31.038Z,70.15
2018-10-02T00:48:59.849Z,69.99
2018-10-02T00:51:28.689Z,70.10
2018-10-02T00:53:57.526Z,70.62
2018-10-02T00:56:26.277Z,70.37
2018-10-02T00:58:55.456Z,70.28
2018-10-02T01:01:24.229Z,69.83
2018-10-02T01:03:53.162Z,69.92
2018-10-02T01:06:22.043Z,69.97
2018-10-02T01:08:50.897Z,69.94
2018-10-02T01:11:19.714Z,69.71
2018-10-02T01:13:48.562Z,69.75
2018-10-02T01:16:17.338Z,69.68
2018-10-02T01:18:46.341Z,69.89
2018-10-02T01:21:15.111Z,69.71
2018-10-02T01:23:44.014Z,69.81
2018-10-02T01:26:12.762Z,69.95
2018-10-02T01:28:41.639Z,69.96
2018-10-02T01:31:10.440Z,70.39
2018-10-02T01:33:39.234Z,70.89
2018-10-02T01:36:08.610Z,71.41
2018-10-02T01:38:37.469Z,71.86
2018-10-02T01:41:06.437Z,72.27
2018-10-02T01:43:35.206Z,72.43
2018-10-02T01:46:04.466Z,72.93
2018-10-02T01:48:33.394Z,73.13
2018-10-02T01:51:02.182Z,72.96
2018-10-02T01:53:30.973Z,72.87
2018-10-02T01:55:59.854Z,73.12
2018-10-02T01:58:29.020Z,72.83
2018-10-02T02:00:57.881Z,73.30
2018-10-02T02:03:27.420Z,73.24
2018-10-02T02:05:56.289Z,73.20
2018-10-02T02:08:25.094Z,73.31
2018-10-02T02:10:54.199Z,73.29
2018-10-02T02:13:23.026Z,73.33
2018-10-02T02:15:51.767Z,73.68
2018-10-02T02:18:20.578Z,73.22
2018-10-02T02:20:49.402Z,73.08
2018-10-02T02:23:18.192Z,73.40
2018-10-02T02:25:47.099Z,72.97
2018-10-02T02:28:15.914Z,73.07
2018-10-02T02:30:44.743Z,72.89
2018-10-02T02:33:13.626Z,72.76
2018-10-02T02:35:42.502Z,72.64
2018-10-02T02:38:11.302Z,73.37
2018-10-02T02:40:40.496Z,72.67
2018-10-02T02:43:09.202Z,72.58
2018-10-02T02:45:38.118Z,72.71
2018-10-02T02:48:12.026Z,72.84
2018-10-02T02:50:50.841Z,72.52
2018-10-02T02:53:23.282Z,72.75
2018-10-02T02:55:52.749Z,72.08
2018-10-02T02:58:22.447Z,72.87
2018-10-02T03:00:51.343Z,72.75
2018-10-02T03:03:20.307Z,72.63
2018-10-02T03:05:49.109Z,72.71
2018-10-02T03:08:17.966Z,72.67
2018-10-02T03:10:47.086Z,72.95
2018-10-02T03:13:15.934Z,73.29
2018-10-02T03:15:44.815Z,73.08
2018-10-02T03:18:13.893Z,73.27
2018-10-02T03:20:42.702Z,72.74
2018-10-02T03:23:12.217Z,72.85
2018-10-02T03:25:41.088Z,72.66
2018-10-02T03:28:09.853Z,72.69
2018-10-02T03:30:38.650Z,71.67
2018-10-02T03:33:08.054Z,70.96
2018-10-02T03:35:36.871Z,70.74
2018-10-02T03:38:05.795Z,69.98
2018-10-02T03:40:34.539Z,70.36
2018-10-02T03:43:03.317Z,70.00
2018-10-02T03:45:32.122Z,69.99
2018-10-02T03:48:00.845Z,70.31
2018-10-02T03:50:29.707Z,70.82
2018-10-02T03:52:58.433Z,70.57
2018-10-02T03:55:27.286Z,70.45
2018-10-02T03:57:56.031Z,70.23
2018-10-02T04:00:24.970Z,70.61
2018-10-02T04:02:53.843Z,70.25
2018-10-02T04:05:22.822Z,70.30
2018-10-02T04:07:51.631Z,70.23
2018-10-02T04:10:20.391Z,70.47
2018-10-02T04:12:49.312Z,70.65
2018-10-02T04:15:18.110Z,71.41
2018-10-02T04:17:46.941Z,71.07
2018-10-02T04:20:16.006Z,70.27
2018-10-02T04:22:44.794Z,71.18
2018-10-02T04:25:13.501Z,70.52
2018-10-02T04:27:42.382Z,70.50
2018-10-02T04:30:11.161Z,70.68
2018-10-02T04:32:40.010Z,70.42
2018-10-02T04:35:09.140Z,70.51
2018-10-02T04:37:38.388Z,70.64
2018-10-02T04:40:07.218Z,70.27
2018-10-02T04:42:36.161Z,70.77
2018-10-02T04:45:05.076Z,70.47
2018-10-02T04:47:34.239Z,70.98
2018-10-02T04:50:03.158Z,70.76
2018-10-02T04:52:31.941Z,71.02
2018-10-02T04:55:00.786Z,71.00
2018-10-02T04:57:29.575Z,70.45
2018-10-02T04:59:58.374Z,70.94
2018-10-02T05:02:27.344Z,70.79
2018-10-02T05:04:56.068Z,70.52
2018-10-02T05:07:24.922Z,70.72
2018-10-02T05:09:53.794Z,70.64
2018-10-02T05:12:24.520Z,70.72
2018-10-02T05:14:54.292Z,71.05
2018-10-02T05:17:23.395Z,70.43
2018-10-02T05:19:52.282Z,70.52
2018-10-02T05:22:21.336Z,71.30
2018-10-02T05:24:50.054Z,70.84
2018-10-02T05:27:19.124Z,71.29
2018-10-02T05:29:48.021Z,71.40
2018-10-02T05:32:16.820Z,71.40
2018-10-02T05:34:45.678Z,71.01
2018-10-02T05:37:15.265Z,70.98
2018-10-02T05:39:44.172Z,70.14
2018-10-02T05:42:12.958Z,69.91
2018-10-02T05:44:43.583Z,69.80
2018-10-02T05:47:12.425Z,69.53
2018-10-02T05:49:43.166Z,69.66
2018-10-02T05:52:12.062Z,69.20
2018-10-02T05:54:41.074Z,68.75
2018-10-02T05:57:09.973Z,68.03
2018-10-02T05:59:38.911Z,66.57
2018-10-02T06:02:07.950Z,64.92
2018-10-02T06:04:36.959Z,63.92
2018-10-02T06:07:06.035Z,64.77
2018-10-02T06:09:34.891Z,65.25
2018-10-02T06:12:03.943Z,64.95
2018-10-02T06:14:33.342Z,65.18
2018-10-02T06:17:02.203Z,65.28
2018-10-02T06:19:31.049Z,65.20
2018-10-02T06:21:59.904Z,64.85
2018-10-02T06:24:29.134Z,64.82
2018-10-02T06:26:58.502Z,64.41
2018-10-02T06:29:27.452Z,64.02
2018-10-02T06:31:56.299Z,62.54
2018-10-02T06:34:25.068Z,60.61
2018-10-02T06:36:57.219Z,60.02
2018-10-02T06:39:27.000Z,58.86
2018-10-02T06:41:55.969Z,58.90
2018-10-02T06:44:24.832Z,58.84
2018-10-02T06:46:53.794Z,60.42
2018-10-02T06:49:22.689Z,61.40
2018-10-02T06:51:51.686Z,61.70
2018-10-02T06:54:20.697Z,62.04
2018-10-02T06:56:50.029Z,61.88
2018-10-02T06:59:18.936Z,61.82
2018-10-02T07:01:47.970Z,62.07
2018-10-02T07:04:16.941Z,62.19
2018-10-02T07:06:50.772Z,61.96
2018-10-02T07:09:20.046Z,62.63
2018-10-02T07:11:48.992Z,62.39
2018-10-02T07:14:18.214Z,61.67
2018-10-02T07:16:49.692Z,62.71
2018-10-02T07:19:19.191Z,62.68
2018-10-02T07:21:50.336Z,61.95
2018-10-02T07:24:20.279Z,61.19
2018-10-02T07:26:49.449Z,61.50
2018-10-02T07:29:18.167Z,61.42
2018-10-02T07:31:49.411Z,61.49
2018-10-02T07:34:18.254Z,60.93
2018-10-02T07:36:47.136Z,62.02
2018-10-02T07:39:16.040Z,61.73
2018-10-02T07:41:44.878Z,61.12
2018-10-02T07:44:14.000Z,60.92
2018-10-02T07:46:43.544Z,60.91
2018-10-02T07:49:12.842Z,60.98
2018-10-02T07:54:32.965Z,60.54
2018-10-02T07:57:02.425Z,59.94
2018-10-02T07:59:31.776Z,60.04
2018-10-02T08:02:01.685Z,59.48
2018-10-02T08:04:31.252Z,59.01
2018-10-02T08:07:01.196Z,58.31
2018-10-02T08:09:30.244Z,58.40
2018-10-02T08:11:59.203Z,58.88
2018-10-02T08:14:28.327Z,58.02
2018-10-02T08:16:57.351Z,58.32
2018-10-02T08:19:26.899Z,57.70
2018-10-02T08:21:56.663Z,56.88
2018-10-02T08:24:25.585Z,56.68
2018-10-02T08:26:54.465Z,54.85
2018-10-02T08:29:23.379Z,53.48
2018-10-02T08:31:53.146Z,52.13
2018-10-02T08:34:22.479Z,51.85
2018-10-02T08:36:51.291Z,51.92
2018-10-02T08:39:20.638Z,52.39
2018-10-02T08:41:49.773Z,51.48
2018-10-02T08:44:18.850Z,50.43
2018-10-02T08:46:48.084Z,50.22
2018-10-02T08:49:17.436Z,51.78
2018-10-02T08:51:46.637Z,51.94
2018-10-02T08:54:15.462Z,51.64
2018-10-02T08:56:44.394Z,51.58
2018-10-02T08:59:13.251Z,52.27
2018-10-02T09:01:42.151Z,51.71
2018-10-02T09:04:11.039Z,51.97
2018-10-02T09:06:40.045Z,51.62
2018-10-02T09:09:12.097Z,51.92
2018-10-02T09:11:42.214Z,52.87
2018-10-02T09:14:11.220Z,53.26
2018-10-02T09:16:40.373Z,52.86
2018-10-02T09:19:09.572Z,52.33
2018-10-02T09:21:39.033Z,52.59
2018-10-02T09:24:08.353Z,52.17
2018-10-02T09:26:37.425Z,51.53
2018-10-02T09:29:06.473Z,50.06
2018-10-02T09:31:40.512Z,50.18
2018-10-02T09:34:14.811Z,50.21
2018-10-02T09:36:48.848Z,49.38
2018-10-02T09:39:23.136Z,48.96
2018-10-02T09:41:57.284Z,49.05
2018-10-02T09:44:26.502Z,49.26
2018-10-02T09:46:55.862Z,48.61
2018-10-02T09:49:25.064Z,49.69
2018-10-02T09:51:54.497Z,50.69
2018-10-02T09:54:23.584Z,50.48
2018-10-02T09:56:52.697Z,51.95
2018-10-02T09:59:21.873Z,52.05
2018-10-02T10:01:56.785Z,52.67
2018-10-02T10:04:27.266Z,53.11
2018-10-02T10:06:56.012Z,53.55
2018-10-02T10:09:24.930Z,54.08
2018-10-02T10:11:54.103Z,54.03
2018-10-02T10:14:23.833Z,54.77
2018-10-02T10:16:55.313Z,55.17
2018-10-02T10:19:24.176Z,55.28
2018-10-02T10:21:53.042Z,55.47
2018-10-02T10:24:22.491Z,55.10
2018-10-02T10:26:51.504Z,56.58
2018-10-02T10:29:20.429Z,56.79
2018-10-02T10:31:49.644Z,57.35
2018-10-02T10:34:18.662Z,57.13
2018-10-02T10:36:48.788Z,56.78
2018-10-02T10:39:17.820Z,56.97
2018-10-02T10:41:46.910Z,57.21
2018-10-02T10:44:15.909Z,58.57
2018-10-02T10:46:46.535Z,57.42
2018-10-02T10:49:15.541Z,56.62
2018-10-02T10:51:45.020Z,56.18
2018-10-02T10:54:13.962Z,55.95
2018-10-02T10:56:43.801Z,55.46
2018-10-02T10:59:12.911Z,55.24
2018-10-02T11:01:42.506Z,55.16
2018-10-02T11:04:11.657Z,55.16
2018-10-02T11:06:41.999Z,55.06
2018-10-02T11:09:14.046Z,55.24
2018-10-02T11:11:42.975Z,56.35
2018-10-02T11:14:11.919Z,56.81
2018-10-02T11:16:41.687Z,57.79
2018-10-02T11:19:10.534Z,58.71
2018-10-02T11:21:39.824Z,59.93
2018-10-02T11:24:09.069Z,60.83
2018-10-02T11:26:38.018Z,61.30
2018-10-02T11:29:07.002Z,62.05
2018-10-02T11:31:35.768Z,63.24
2018-10-02T11:34:04.834Z,62.75
2018-10-02T11:36:33.751Z,63.44
2018-10-02T11:39:02.610Z,62.82
2018-10-02T11:41:31.771Z,63.14
2018-10-02T11:44:00.775Z,63.84
2018-10-02T11:46:29.488Z,62.55
2018-10-02T11:48:58.303Z,63.43
2018-10-02T11:51:27.126Z,62.59
2018-10-02T11:53:55.960Z,62.17
2018-10-02T11:56:26.196Z,61.27
2018-10-02T11:58:55.672Z,60.89
2018-10-02T12:01:24.852Z,60.22
2018-10-02T12:03:54.136Z,60.25
2018-10-02T12:06:23.426Z,59.43
2018-10-02T12:08:52.344Z,59.40
2018-10-02T12:11:23.234Z,59.08
2018-10-02T12:13:55.851Z,59.12
2018-10-02T12:16:26.715Z,59.10
2018-10-02T12:18:55.705Z,59.50
2018-10-02T12:21:25.601Z,58.92
2018-10-02T12:23:54.997Z,59.29
2018-10-02T12:26:24.163Z,58.37
2018-10-02T12:28:54.555Z,59.77
2018-10-02T12:31:24.820Z,59.75
2018-10-02T12:33:54.397Z,59.82
2018-10-02T12:36:23.142Z,60.03
2018-10-02T12:38:52.143Z,60.38
2018-10-02T12:41:23.555Z,60.13
2018-10-02T12:43:54.529Z,59.59
2018-10-02T12:46:23.802Z,60.17
2018-10-02T12:48:52.764Z,60.76
2018-10-02T12:51:21.836Z,60.51
2018-10-02T12:53:50.683Z,59.72
2018-10-02T12:56:19.981Z,59.80
2018-10-02T13:02:11.660Z,59.30
2018-10-02T13:04:40.640Z,59.69
2018-10-02T13:07:10.024Z,60.41
2018-10-02T13:09:40.368Z,60.22
2018-10-02T13:12:10.105Z,60.24
2018-10-02T13:14:39.225Z,60.70
2018-10-02T13:17:08.836Z,60.44
2018-10-02T13:19:38.452Z,60.65
2018-10-02T13:22:07.670Z,59.48
2018-10-02T13:24:37.244Z,58.42
2018-10-02T13:27:06.964Z,59.08
2018-10-02T13:29:36.617Z,58.89
2018-10-02T13:32:05.807Z,59.04
2018-10-02T13:34:35.262Z,58.92
2018-10-02T13:37:05.074Z,59.35
2018-10-02T13:39:34.289Z,60.04
2018-10-02T13:42:03.994Z,60.56
2018-10-02T13:44:33.235Z,61.18
2018-10-02T13:47:02.699Z,62.58
2018-10-02T13:49:32.592Z,63.19
2018-10-02T13:52:01.535Z,64.08
2018-10-02T13:54:31.580Z,63.97
2018-10-02T13:57:00.751Z,64.85
2018-10-02T13:59:30.137Z,65.04
2018-10-02T14:01:59.493Z,66.02
2018-10-02T14:04:29.546Z,65.20
2018-10-02T14:06:58.928Z,65.79
2018-10-02T14:09:28.448Z,65.51
2018-10-02T14:11:58.369Z,65.22
2018-10-02T14:14:27.738Z,65.01
2018-10-02T14:16:57.444Z,64.54
2018-10-02T14:19:27.180Z,64.30
2018-10-02T14:21:56.543Z,64.38
2018-10-02T14:24:25.666Z,63.91
2018-10-02T14:26:54.960Z,64.07
2018-10-02T14:29:25.648Z,64.07
2018-10-02T14:31:54.954Z,63.92
2018-10-02T14:34:24.131Z,63.76
2018-10-02T14:36:54.060Z,63.34
2018-10-02T14:39:23.559Z,63.19
2018-10-02T14:41:52.687Z,62.94
2018-10-02T14:44:22.947Z,62.75
2018-10-02T14:46:52.660Z,62.18
2018-10-02T14:49:21.926Z,62.20
2018-10-02T14:51:51.264Z,62.06
2018-10-02T14:54:21.631Z,62.21
2018-10-02T14:56:51.138Z,61.81
2018-10-02T14:59:20.718Z,61.63
2018-10-02T15:01:50.003Z,61.48
2018-10-02T15:04:19.368Z,62.08
2018-10-02T15:06:49.481Z,61.71
2018-10-02T15:09:18.835Z,61.49
2018-10-02T15:11:48.147Z,61.18
2018-10-02T15:14:17.439Z,61.12
2018-10-02T15:16:46.761Z,61.55
2018-10-02T15:19:18.524Z,61.16
2018-10-02T15:21:47.776Z,61.35
2018-10-02T15:24:18.941Z,60.80
2018-10-02T15:26:48.094Z,61.10
2018-10-02T15:29:17.095Z,60.17
2018-10-02T15:31:46.311Z,60.44
2018-10-02T15:34:15.901Z,60.70
2018-10-02T15:36:47.246Z,60.47
2018-10-02T15:39:16.572Z,60.65
2018-10-02T15:41:47.114Z,60.51
2018-10-02T15:44:16.476Z,60.35
2018-10-02T15:46:45.876Z,60.36
2018-10-02T15:49:17.001Z,60.19
2018-10-02T15:51:47.074Z,60.00
2018-10-02T15:54:17.735Z,59.89
2018-10-02T15:56:47.542Z,59.69
2018-10-02T15:59:16.715Z,59.94
2018-10-02T16:01:45.659Z,60.01
2018-10-02T16:04:14.755Z,60.84
2018-10-02T16:06:44.245Z,60.75
2018-10-02T16:09:13.184Z,61.49
2018-10-02T16:11:42.221Z,61.41
2018-10-02T16:14:11.105Z,61.75
2018-10-02T16:16:40.217Z,61.56
2018-10-02T16:19:09.100Z,61.94
2018-10-02T16:21:38.231Z,61.48
2018-10-02T16:24:07.250Z,62.13
2018-10-02T16:26:36.200Z,62.93
2018-10-02T16:29:05.197Z,64.13
2018-10-02T16:31:34.126Z,64.90
2018-10-02T16:34:03.017Z,65.23
2018-10-02T16:36:31.994Z,66.34
2018-10-02T16:39:00.986Z,66.67
2018-10-02T16:41:29.991Z,67.35
2018-10-02T16:43:58.836Z,68.44
2018-10-02T16:46:27.667Z,69.00
2018-10-02T16:48:56.844Z,69.45
2018-10-02T16:51:26.368Z,70.20
2018-10-02T16:53:55.510Z,70.00
2018-10-02T16:56:24.324Z,69.82
2018-10-02T16:58:53.339Z,70.11
2018-10-02T17:01:22.218Z,69.75
2018-10-02T17:03:51.255Z,68.87
2018-10-02T17:06:20.429Z,68.88
2018-10-02T17:08:49.683Z,68.18
2018-10-02T17:11:18.642Z,68.35
2018-10-02T17:13:47.682Z,68.03
2018-10-02T17:16:16.873Z,67.91
2018-10-02T17:18:45.850Z,66.95
2018-10-02T17:21:15.093Z,66.87
2018-10-02T17:23:43.847Z,67.04
2018-10-02T17:26:12.959Z,67.14
2018-10-02T17:28:42.167Z,66.97
2018-10-02T17:31:11.207Z,67.37
2018-10-02T17:33:40.112Z,67.10
2018-10-02T17:36:13.933Z,67.19
2018-10-02T17:38:43.008Z,67.32
2018-10-02T17:41:11.956Z,67.25
2018-10-02T17:43:40.999Z,67.87
2018-10-02T17:46:10.470Z,68.05
2018-10-02T17:48:39.359Z,68.06
2018-10-02T17:51:08.663Z,68.33
2018-10-02T17:53:37.607Z,68.22
2018-10-02T17:56:06.411Z,68.89
2018-10-02T17:58:35.635Z,68.66
2018-10-02T18:01:05.761Z,68.83
2018-10-02T18:03:34.651Z,69.49
2018-10-02T18:06:03.720Z,69.24
2018-10-02T18:08:35.168Z,69.24
2018-10-02T18:11:07.343Z,69.32
2018-10-02T18:13:36.381Z,69.72
2018-10-02T18:16:05.231Z,69.43
2018-10-02T18:18:35.524Z,69.19
2018-10-02T18:21:04.466Z,68.91
2018-10-02T18:23:33.743Z,68.96
2018-10-02T18:26:02.744Z,69.14
2018-10-02T18:28:32.809Z,68.90
2018-10-02T18:31:02.576Z,69.05
2018-10-02T18:33:32.973Z,68.99
2018-10-02T18:36:02.077Z,68.96
2018-10-02T18:38:33.485Z,68.65
2018-10-02T18:41:07.660Z,68.74
2018-10-02T18:43:37.920Z,68.58
2018-10-02T18:46:09.188Z,68.33
2018-10-02T18:48:39.830Z,68.20
2018-10-02T18:51:09.023Z,67.84
2018-10-02T18:53:38.186Z,67.84
2018-10-02T18:56:08.465Z,67.26
2018-10-02T18:58:38.685Z,67.28
2018-10-02T19:01:08.792Z,66.92
2018-10-02T19:03:38.767Z,67.32
2018-10-02T19:06:13.215Z,67.38
2018-10-02T19:08:48.983Z,67.11
2018-10-02T19:11:23.612Z,66.98
2018-10-02T19:13:58.732Z,67.33
2018-10-02T19:16:31.702Z,66.69
2018-10-02T19:19:02.203Z,66.66
2018-10-02T19:21:32.734Z,66.82
2018-10-02T19:24:11.636Z,66.83
2018-10-02T19:26:43.122Z,66.34
2018-10-02T19:29:14.780Z,66.42
2018-10-02T19:31:51.875Z,66.73
2018-10-02T19:34:21.448Z,66.68
2018-10-02T19:36:56.694Z,66.64
2018-10-02T19:39:38.883Z,66.50
2018-10-02T19:42:16.444Z,66.70
2018-10-02T19:47:33.721Z,66.59
2018-10-02T19:50:03.382Z,66.52
2018-10-02T19:52:33.913Z,66.55
2018-10-02T19:55:05.658Z,66.45
2018-10-02T19:57:35.811Z,66.57
2018-10-02T20:00:08.942Z,66.74
2018-10-02T20:11:47.854Z,67.20
2018-10-02T20:14:17.281Z,67.52
2018-10-02T20:16:46.482Z,67.60
2018-10-02T20:19:16.297Z,67.38
2018-10-02T20:21:45.663Z,67.28
2018-10-02T20:24:15.161Z,67.40
2018-10-02T20:26:44.340Z,67.38
2018-10-02T20:29:13.197Z,67.40
2018-10-02T20:31:44.038Z,67.43
2018-10-02T20:34:13.034Z,67.65
2018-10-02T20:36:44.710Z,67.43
2018-10-02T20:39:14.865Z,67.42
2018-10-02T20:41:44.937Z,67.41
2018-10-02T20:44:13.951Z,67.90
2018-10-02T20:46:43.104Z,67.49
2018-10-02T20:49:12.658Z,67.66
2018-10-02T20:51:41.571Z,68.12
2018-10-02T20:54:10.794Z,67.85
2018-10-02T20:56:43.650Z,67.66
2018-10-02T20:59:12.860Z,68.25
2018-10-02T21:01:41.863Z,68.09
2018-10-02T21:04:13.917Z,67.89
2018-10-02T21:06:43.254Z,68.33
2018-10-02T21:09:12.316Z,67.85
2018-10-02T21:11:45.346Z,68.04
2018-10-02T21:14:14.283Z,68.00
2018-10-02T21:16:43.356Z,67.82
2018-10-02T21:19:12.342Z,67.75
2018-10-02T21:21:42.137Z,68.05
2018-10-02T21:24:11.892Z,67.81
2018-10-02T21:26:42.940Z,67.78
2018-10-02T21:29:12.069Z,68.05
2018-10-02T21:31:42.309Z,67.92
2018-10-02T21:34:12.739Z,67.96
2018-10-02T21:36:42.047Z,68.08
2018-10-02T21:39:11.783Z,67.91
2018-10-02T21:41:44.149Z,67.85
2018-10-02T21:44:13.586Z,68.03
2018-10-02T21:46:43.897Z,68.08
2018-10-02T21:49:13.254Z,68.08
2018-10-02T21:51:42.264Z,68.31
2018-10-02T21:54:13.013Z,68.12
2018-10-02T21:59:49.446Z,68.34
2018-10-02T22:02:18.800Z,68.16
2018-10-02T22:04:48.144Z,68.50
2018-10-02T22:07:16.876Z,68.44
2018-10-02T22:09:46.840Z,68.47
2018-10-02T22:12:16.129Z,68.55
2018-10-02T22:14:47.571Z,68.49
2018-10-02T22:17:16.971Z,68.48
2018-10-02T22:19:46.414Z,68.34
2018-10-02T22:22:15.801Z,68.49
2018-10-02T22:24:45.603Z,68.34
2018-10-02T22:27:14.563Z,68.07
2018-10-02T22:29:46.641Z,67.86
2018-10-02T22:32:16.373Z,67.90
2018-10-02T22:34:46.482Z,67.72
2018-10-02T22:37:15.483Z,67.83
2018-10-02T22:39:44.375Z,67.85
2018-10-02T22:42:13.321Z,67.92
2018-10-02T22:44:44.313Z,67.71
2018-10-02T22:47:13.096Z,67.69
2018-10-02T22:49:42.177Z,67.67
2018-10-02T22:52:11.223Z,67.72
2018-10-02T22:54:40.123Z,67.11
2018-10-02T22:57:09.120Z,67.20
2018-10-02T22:59:38.076Z,68.00
2018-10-02T23:02:15.236Z,68.14
2018-10-02T23:04:44.103Z,68.55
2018-10-02T23:07:12.959Z,68.37
2018-10-02T23:09:41.803Z,68.09
2018-10-02T23:12:10.674Z,68.98
2018-10-02T23:14:39.627Z,68.59
2018-10-02T23:17:08.484Z,68.84
2018-10-02T23:19:37.294Z,68.83
2018-10-02T23:22:06.204Z,69.19
2018-10-02T23:24:34.952Z,69.06
2018-10-02T23:27:03.783Z,69.24
2018-10-02T23:29:32.521Z,69.32
2018-10-02T23:32:01.333Z,69.07
2018-10-02T23:34:30.167Z,68.97
2018-10-02T23:36:58.975Z,68.98
2018-10-02T23:39:27.791Z,68.67
2018-10-02T23:41:56.616Z,68.78
2018-10-02T23:44:25.426Z,69.07
2018-10-02T23:46:54.273Z,68.76
2018-10-02T23:49:23.127Z,68.57
2018-10-02T23:51:51.955Z,68.44
2018-10-02T23:54:20.819Z,67.85
2018-10-02T23:56:49.618Z,67.97
2018-10-02T23:59:18.763Z,67.79
